Main page
METAR-TAF:

METAR-TAF

Airports :

Podgorica, Montenegro

Podgorica Airport

latitude: 42-26N, longitude: 019-17E, elevation: 53 m

Current weather observation

The report was made 24 minutes ago, at 17:00 UTC
Wind 9 kt from the South/Southeast
Temperature 32°C
Humidity 38%
Pressure 1009 hPa
Visibility 10 km or more
Few clouds at a height of 4000 ft

METAR: LYPG 261700Z 16009KT 9999 FEW040 32/16 Q1009 NOSIG

Time: 19:24 (17:24 UTC)

Forecast

The report was made 6 hours and 24 minutes ago, at 11:00 UTC
Forecast valid from 26 at 12 UTC to 27 at 12 UTC
Wind 6 kt from the South/Southwest
Visibility 10 km or more
Few clouds at a height of 4000 ft
Probability 30% :
Temporary
from 26 at 12 UTC to 26 at 17 UTC
Wind 15 kt from variable directions with gusts up to 25 kt
Few clouds at a height of 3000 ft, Cumulonimbus.
Scattered clouds at a height of 4000 ft
thunderstorm, rain

TAF: LYPG 261100Z 2612/2712 20006KT 9999 FEW040 TX35/2614Z TN20/2703Z PROB30 TEMPO 2612/2617 VRB15G25KT TSRA FEW030CB SCT040

Weather observations and forecasts of more than 4000 airports (METAR and TAF reports).

The available stations are represented by yellow and red dots on the map.

Hover mouse over dot to see the name of the station.

Then click to see weather observations and forecasts.

To change the map : click on the green buttons with a black cross to zoom in, on the green button with a dash to zoom out, or on the green arrows for adjacent maps.


METAR-TAF: